Terminal Aerodrome Forecast
Issued by NWS

Home | Current Version | Previous Version | Text Only | Print | Product List | Glossary On
Versions: 1 2 3 4 5 6 7 8 9 10 11 12 13 14 15 16 17 18 19 20 21 22 23
000
FTUS43 KGRB 271137
TAFMTW
TAF
KMTW 271137Z 2712/2812 14006KT P6SM SCT100 BKN200
     FM271700 15009G16KT P6SM VCSH SCT040 OVC100
     FM280100 16006KT 6SM BR VCSH SCT020 OVC035
     FM280300 16007KT 4SM BR VCSH BKN012 OVC020
      TEMPO 2804/2808 2SM -SHRA BR BKN006
     FM280800 16007KT 3SM BR VCSH BKN006 OVC020=

USA.gov is the U.S. government's official web portal to all federal, state and local government web resources and services.